createdAt,value
2019-02-24T00:01:00.636Z,102700.02
2019-02-24T00:03:28.903Z,102683.55
2019-02-24T00:05:56.714Z,102674.65
2019-02-24T00:08:24.438Z,102679.44
2019-02-24T00:10:52.244Z,102680.70
2019-02-24T00:13:19.997Z,102683.22
2019-02-24T00:15:47.907Z,102687.08
2019-02-24T00:18:15.758Z,102684.43
2019-02-24T00:20:43.547Z,102687.87
2019-02-24T00:23:11.298Z,102694.01
2019-02-24T00:25:39.191Z,102695.73
2019-02-24T00:28:07.565Z,102688.30
2019-02-24T00:30:35.510Z,102680.95
2019-02-24T00:33:03.374Z,102680.06
2019-02-24T00:35:31.215Z,102686.16
2019-02-24T00:37:59.064Z,102698.29
2019-02-24T00:40:26.843Z,102700.89
2019-02-24T00:42:54.578Z,102683.96
2019-02-24T00:45:22.456Z,102671.45
2019-02-24T00:47:50.176Z,102654.57
2019-02-24T00:50:17.916Z,102656.71
2019-02-24T00:52:45.812Z,102660.61
2019-02-24T00:55:13.644Z,102646.28
2019-02-24T00:57:41.508Z,102655.36
2019-02-24T01:00:10.208Z,102659.69
2019-02-24T01:02:38.104Z,102661.45
2019-02-24T01:05:13.104Z,102667.50
2019-02-24T01:07:41.018Z,102661.87
2019-02-24T01:10:08.895Z,102657.13
2019-02-24T01:12:36.910Z,102666.70
2019-02-24T01:15:05.525Z,102671.03
2019-02-24T01:17:33.304Z,102660.19
2019-02-24T01:20:01.749Z,102652.84
2019-02-24T01:22:29.667Z,102653.73
2019-02-24T01:24:57.519Z,102649.41
2019-02-24T01:27:25.305Z,102650.28
2019-02-24T01:29:54.053Z,102651.17
2019-02-24T01:32:21.854Z,102660.75
2019-02-24T01:34:50.001Z,102662.52
2019-02-24T01:37:17.914Z,102658.61
2019-02-24T01:39:45.654Z,102633.45
2019-02-24T01:42:13.475Z,102629.17
2019-02-24T01:44:41.228Z,102612.25
2019-02-24T01:47:09.138Z,102604.53
2019-02-24T01:49:37.459Z,102601.93
2019-02-24T01:52:05.471Z,102599.75
2019-02-24T01:54:33.188Z,102592.40
2019-02-24T01:57:00.989Z,102600.22
2019-02-24T01:59:28.873Z,102586.36
2019-02-24T02:01:56.785Z,102577.71
2019-02-24T02:04:24.535Z,102573.85
2019-02-24T02:06:55.231Z,102569.48
2019-02-24T02:09:23.058Z,102563.45
2019-02-24T02:11:51.174Z,102563.91
2019-02-24T02:14:19.126Z,102570.04
2019-02-24T02:16:46.918Z,102568.32
2019-02-24T02:19:14.769Z,102549.69
2019-02-24T02:21:42.566Z,102553.59
2019-02-24T02:24:10.391Z,102550.16
2019-02-24T02:26:38.382Z,102545.41
2019-02-24T02:29:06.338Z,102552.42
2019-02-24T02:31:34.253Z,102554.61
2019-02-24T02:34:02.015Z,102567.20
2019-02-24T02:36:29.828Z,102573.66
2019-02-24T02:38:57.595Z,102577.94
2019-02-24T02:41:25.449Z,102598.30
2019-02-24T02:43:53.251Z,102588.73
2019-02-24T02:46:20.994Z,102597.38
2019-02-24T02:48:48.801Z,102600.39
2019-02-24T02:51:16.559Z,102599.51
2019-02-24T02:53:44.456Z,102595.56
2019-02-24T02:56:13.166Z,102597.28
2019-02-24T02:58:41.164Z,102598.12
2019-02-24T03:01:08.910Z,102593.38
2019-02-24T03:03:36.723Z,102591.61
2019-02-24T03:06:39.181Z,102575.95
2019-02-24T03:09:10.071Z,102552.98
2019-02-24T03:11:37.968Z,102536.58
2019-02-24T03:14:05.848Z,102525.38
2019-02-24T03:16:33.792Z,102536.34
2019-02-24T03:19:01.694Z,102536.30
2019-02-24T03:21:29.812Z,102540.58
2019-02-24T03:23:57.598Z,102542.25
2019-02-24T03:26:25.356Z,102537.42
2019-02-24T03:28:53.127Z,102542.16
2019-02-24T03:31:20.988Z,102548.29
2019-02-24T03:33:48.810Z,102538.71
2019-02-24T03:36:16.587Z,102528.72
2019-02-24T03:38:44.397Z,102537.00
2019-02-24T03:41:14.056Z,102530.50
2019-02-24T03:43:41.862Z,102533.09
2019-02-24T03:46:09.689Z,102531.74
2019-02-24T03:48:37.569Z,102539.88
2019-02-24T03:51:05.329Z,102547.20
2019-02-24T03:53:33.205Z,102552.36
2019-02-24T03:56:01.169Z,102551.86
2019-02-24T03:58:29.038Z,102546.17
2019-02-24T04:00:57.011Z,102552.63
2019-02-24T04:03:25.024Z,102550.86
2019-02-24T04:05:53.347Z,102549.94
2019-02-24T04:08:21.154Z,102551.23
2019-02-24T04:10:49.026Z,102555.97
2019-02-24T04:13:16.822Z,102558.53
2019-02-24T04:15:44.669Z,102556.77
2019-02-24T04:18:12.493Z,102552.84
2019-02-24T04:20:40.239Z,102549.77
2019-02-24T04:23:08.025Z,102554.05
2019-02-24T04:25:35.858Z,102549.25
2019-02-24T04:28:03.663Z,102548.80
2019-02-24T04:30:32.191Z,102542.27
2019-02-24T04:33:00.593Z,102541.38
2019-02-24T04:35:28.332Z,102542.22
2019-02-24T04:37:56.143Z,102550.45
2019-02-24T04:40:23.886Z,102535.70
2019-02-24T04:42:51.615Z,102538.36
2019-02-24T04:45:19.530Z,102536.13
2019-02-24T04:47:47.258Z,102538.67
2019-02-24T04:50:15.157Z,102543.37
2019-02-24T04:52:42.975Z,102533.83
2019-02-24T04:55:10.878Z,102530.76
2019-02-24T04:57:38.665Z,102541.17
2019-02-24T05:00:07.195Z,102538.14
2019-02-24T05:02:35.112Z,102541.17
2019-02-24T05:05:03.132Z,102545.44
2019-02-24T05:07:30.894Z,102547.16
2019-02-24T05:09:58.700Z,102548.45
2019-02-24T05:12:26.451Z,102551.02
2019-02-24T05:14:54.344Z,102548.36
2019-02-24T05:17:22.165Z,102554.45
2019-02-24T05:19:50.585Z,102548.45
2019-02-24T05:22:18.297Z,102546.33
2019-02-24T05:24:46.504Z,102546.74
2019-02-24T05:27:14.252Z,102549.72
2019-02-24T05:29:45.981Z,102554.45
2019-02-24T05:32:11.766Z,102551.78
2019-02-24T05:34:39.945Z,102546.52
2019-02-24T05:37:07.697Z,102546.45
2019-02-24T05:39:35.583Z,102540.36
2019-02-24T05:42:03.329Z,102545.53
2019-02-24T05:44:33.363Z,102538.11
2019-02-24T05:47:01.313Z,102537.64
2019-02-24T05:49:29.232Z,102535.88
2019-02-24T05:51:57.060Z,102542.37
2019-02-24T05:54:24.849Z,102532.36
2019-02-24T05:56:52.716Z,102540.12
2019-02-24T05:59:20.682Z,102540.12
2019-02-24T06:01:48.487Z,102527.92
2019-02-24T06:04:16.264Z,102522.30
2019-02-24T06:06:44.124Z,102509.75
2019-02-24T06:09:11.927Z,102505.47
2019-02-24T06:11:39.646Z,102512.88
2019-02-24T06:14:07.445Z,102519.41
2019-02-24T06:16:38.125Z,102521.59
2019-02-24T06:19:06.039Z,102513.34
2019-02-24T06:21:33.794Z,102504.12
2019-02-24T06:24:01.635Z,102506.23
2019-02-24T06:26:30.245Z,102495.83
2019-02-24T06:28:58.194Z,102488.53
2019-02-24T06:31:26.093Z,102485.52
2019-02-24T06:33:53.838Z,102485.21
2019-02-24T06:36:21.667Z,102486.41
2019-02-24T06:38:49.426Z,102492.97
2019-02-24T06:41:17.221Z,102505.95
2019-02-24T06:43:44.951Z,102507.60
2019-02-24T06:46:16.376Z,102507.94
2019-02-24T06:48:44.291Z,102511.39
2019-02-24T06:51:12.783Z,102513.05
2019-02-24T06:53:40.508Z,102516.12
2019-02-24T06:56:08.311Z,102512.20
2019-02-24T06:58:36.172Z,102511.67
2019-02-24T07:01:04.142Z,102498.52
2019-02-24T07:03:31.990Z,102500.72
2019-02-24T07:05:59.782Z,102492.94
2019-02-24T07:08:27.834Z,102490.64
2019-02-24T07:10:55.612Z,102485.82
2019-02-24T07:13:23.541Z,102479.59
2019-02-24T07:15:51.347Z,102473.61
2019-02-24T07:18:19.074Z,102467.86
2019-02-24T07:20:46.945Z,102480.20
2019-02-24T07:23:14.681Z,102471.14
2019-02-24T07:25:42.476Z,102471.08
2019-02-24T07:28:10.218Z,102465.93
2019-02-24T07:30:37.988Z,102470.19
2019-02-24T07:33:05.704Z,102464.89
2019-02-24T07:35:33.487Z,102458.26
2019-02-24T07:38:01.333Z,102453.04
2019-02-24T07:40:29.112Z,102459.15
2019-02-24T07:42:56.857Z,102456.00
2019-02-24T07:45:24.737Z,102446.73
2019-02-24T07:47:52.489Z,102428.54
2019-02-24T07:50:23.194Z,102426.27
2019-02-24T07:52:54.094Z,102421.33
2019-02-24T07:55:21.907Z,102405.58
2019-02-24T07:57:49.635Z,102412.53
2019-02-24T08:00:17.478Z,102416.50
2019-02-24T08:02:45.275Z,102401.53
2019-02-24T08:05:13.147Z,102408.63
2019-02-24T08:07:40.864Z,102408.07
2019-02-24T08:10:08.755Z,102406.67
2019-02-24T08:12:36.854Z,102401.47
2019-02-24T08:15:04.834Z,102414.84
2019-02-24T08:17:32.821Z,102417.38
2019-02-24T08:20:00.567Z,102420.00
2019-02-24T08:22:28.407Z,102417.73
2019-02-24T08:24:56.165Z,102416.77
2019-02-24T08:27:23.969Z,102430.63
2019-02-24T08:29:51.826Z,102429.66
2019-02-24T08:32:19.620Z,102430.00
2019-02-24T08:34:47.485Z,102431.19
2019-02-24T08:37:15.280Z,102411.95
2019-02-24T08:39:43.018Z,102432.22
2019-02-24T08:42:10.936Z,102432.60
2019-02-24T08:44:38.757Z,102429.91
2019-02-24T08:47:07.046Z,102430.16
2019-02-24T08:49:34.770Z,102435.72
2019-02-24T08:52:02.777Z,102434.17
2019-02-24T08:54:41.691Z,102432.38
2019-02-24T08:57:09.599Z,102440.14
2019-02-24T08:59:38.339Z,102450.86
2019-02-24T09:02:06.368Z,102459.83
2019-02-24T09:04:34.233Z,102458.30
2019-02-24T09:07:02.121Z,102455.44
2019-02-24T09:09:29.887Z,102450.02
2019-02-24T09:11:57.719Z,102458.09
2019-02-24T09:14:25.499Z,102458.25
2019-02-24T09:16:53.324Z,102444.98
2019-02-24T09:19:22.090Z,102436.95
2019-02-24T09:21:49.915Z,102455.17
2019-02-24T09:24:17.682Z,102462.03
2019-02-24T09:26:45.630Z,102456.16
2019-02-24T09:29:13.549Z,102448.60
2019-02-24T09:31:41.353Z,102447.95
2019-02-24T09:34:09.098Z,102443.84
2019-02-24T09:36:36.975Z,102438.98
2019-02-24T09:39:05.397Z,102424.84
2019-02-24T09:41:33.163Z,102424.25
2019-02-24T09:44:00.894Z,102422.34
2019-02-24T09:46:28.783Z,102422.22
2019-02-24T09:48:56.779Z,102421.09
2019-02-24T09:51:25.471Z,102433.17
2019-02-24T09:53:53.298Z,102435.61
2019-02-24T09:56:24.753Z,102438.83
2019-02-24T09:58:52.604Z,102436.86
2019-02-24T10:01:20.551Z,102434.14
2019-02-24T10:03:48.450Z,102434.84
2019-02-24T10:06:16.577Z,102438.97
2019-02-24T10:08:44.477Z,102439.78
2019-02-24T10:11:13.270Z,102443.08
2019-02-24T10:13:41.516Z,102431.88
2019-02-24T10:16:09.383Z,102433.42
2019-02-24T10:18:37.385Z,102428.95
2019-02-24T10:21:05.250Z,102427.33
2019-02-24T10:23:33.131Z,102428.12
2019-02-24T10:26:00.946Z,102431.88
2019-02-24T10:28:28.841Z,102438.19
2019-02-24T10:30:56.566Z,102433.64
2019-02-24T10:33:24.457Z,102434.22
2019-02-24T10:35:52.325Z,102435.20
2019-02-24T10:38:20.283Z,102428.72
2019-02-24T10:40:48.012Z,102439.39
2019-02-24T10:43:15.815Z,102440.36
2019-02-24T10:45:43.742Z,102438.83
2019-02-24T10:48:14.309Z,102441.58
2019-02-24T10:50:41.202Z,102447.84
2019-02-24T10:53:10.301Z,102442.75
2019-02-24T10:55:38.154Z,102442.16
2019-02-24T10:58:06.165Z,102438.38
2019-02-24T11:00:34.181Z,102425.41
2019-02-24T11:03:02.233Z,102425.61
2019-02-24T11:05:30.336Z,102414.95
2019-02-24T11:07:58.332Z,102412.87
2019-02-24T11:10:26.198Z,102409.13
2019-02-24T11:12:54.008Z,102404.10
2019-02-24T11:15:21.955Z,102399.91
2019-02-24T11:17:49.739Z,102386.44
2019-02-24T11:20:17.794Z,102378.26
2019-02-24T11:22:46.282Z,102368.19
2019-02-24T11:25:14.155Z,102364.71
2019-02-24T11:27:42.090Z,102359.72
2019-02-24T11:30:12.047Z,102354.67
2019-02-24T11:32:39.943Z,102358.19
2019-02-24T11:35:08.270Z,102349.50
2019-02-24T11:37:36.272Z,102355.16
2019-02-24T11:40:04.874Z,102347.41
2019-02-24T11:42:33.273Z,102352.77
2019-02-24T11:45:01.040Z,102346.13
2019-02-24T11:47:29.776Z,102349.17
2019-02-24T11:49:57.647Z,102355.26
2019-02-24T11:52:25.466Z,102354.46
2019-02-24T11:54:53.226Z,102351.13
2019-02-24T11:57:21.177Z,102345.43
2019-02-24T11:59:48.989Z,102344.16
2019-02-24T12:02:16.785Z,102331.87
2019-02-24T12:04:44.630Z,102340.31
2019-02-24T12:07:12.481Z,102323.80
2019-02-24T12:09:40.276Z,102323.99
2019-02-24T12:12:08.137Z,102324.78
2019-02-24T12:14:36.059Z,102325.28
2019-02-24T12:17:03.812Z,102315.80
2019-02-24T12:19:32.248Z,102326.73
2019-02-24T12:22:00.016Z,102333.16
2019-02-24T12:24:27.949Z,102344.81
2019-02-24T12:26:55.864Z,102343.23
2019-02-24T12:29:23.694Z,102344.93
2019-02-24T12:31:56.574Z,102338.48
2019-02-24T12:34:21.163Z,102328.71
2019-02-24T12:36:49.026Z,102332.78
2019-02-24T12:39:16.941Z,102341.56
2019-02-24T12:41:46.585Z,102340.50
2019-02-24T12:44:14.472Z,102335.55
2019-02-24T12:46:42.208Z,102324.75
2019-02-24T12:49:10.013Z,102321.84
2019-02-24T12:51:37.857Z,102326.30
2019-02-24T12:54:05.878Z,102323.57
2019-02-24T12:56:33.819Z,102316.09
2019-02-24T12:59:01.710Z,102315.75
2019-02-24T13:01:29.671Z,102317.45
2019-02-24T13:03:57.617Z,102320.28
2019-02-24T13:06:26.283Z,102311.99
2019-02-24T13:08:54.069Z,102318.37
2019-02-24T13:11:21.937Z,102315.54
2019-02-24T13:13:49.742Z,102312.41
2019-02-24T13:16:17.598Z,102302.85
2019-02-24T13:18:45.386Z,102299.78
2019-02-24T13:21:13.220Z,102292.41
2019-02-24T13:23:41.116Z,102302.28
2019-02-24T13:26:09.885Z,102295.45
2019-02-24T13:28:37.674Z,102289.75
2019-02-24T13:31:05.717Z,102281.84
2019-02-24T13:33:33.502Z,102281.23
2019-02-24T13:36:01.732Z,102276.69
2019-02-24T13:38:29.476Z,102272.55
2019-02-24T13:40:57.289Z,102285.18
2019-02-24T13:43:25.055Z,102279.48
2019-02-24T13:45:52.876Z,102285.19
2019-02-24T13:48:20.627Z,102286.78
2019-02-24T13:50:48.404Z,102281.69
2019-02-24T13:53:16.263Z,102281.23
2019-02-24T13:55:44.162Z,102282.09
2019-02-24T13:58:11.945Z,102287.61
2019-02-24T14:00:39.745Z,102293.84
2019-02-24T14:03:07.532Z,102301.33
2019-02-24T14:05:35.395Z,102305.67
2019-02-24T14:08:03.250Z,102306.36
2019-02-24T14:10:31.226Z,102298.11
2019-02-24T14:12:59.080Z,102299.92
2019-02-24T14:15:26.943Z,102296.86
2019-02-24T14:17:54.704Z,102295.39
2019-02-24T14:20:22.514Z,102286.68
2019-02-24T14:22:50.962Z,102284.48
2019-02-24T14:25:19.359Z,102287.80
2019-02-24T14:27:47.079Z,102293.86
2019-02-24T14:30:15.105Z,102286.11
2019-02-24T14:32:44.233Z,102285.99
2019-02-24T14:35:24.882Z,102300.10
2019-02-24T14:37:52.645Z,102308.50
2019-02-24T14:40:20.854Z,102307.30
2019-02-24T14:42:48.806Z,102303.02
2019-02-24T14:45:16.847Z,102302.00
2019-02-24T14:47:45.111Z,102297.54
2019-02-24T14:50:13.116Z,102299.55
2019-02-24T14:52:40.866Z,102300.48
2019-02-24T14:55:08.939Z,102293.12
2019-02-24T14:57:36.923Z,102298.41
2019-02-24T15:00:06.218Z,102298.41
2019-02-24T15:02:42.223Z,102286.12
2019-02-24T15:05:04.728Z,102279.39
2019-02-24T15:07:32.958Z,102283.84
2019-02-24T15:10:00.746Z,102277.04
2019-02-24T15:12:28.490Z,102272.70
2019-02-24T15:14:56.395Z,102277.80
2019-02-24T15:17:24.147Z,102274.75
2019-02-24T15:19:51.960Z,102277.58
2019-02-24T15:22:19.715Z,102278.52
2019-02-24T15:24:47.625Z,102272.05
2019-02-24T15:27:15.479Z,102275.64
2019-02-24T15:29:43.359Z,102269.33
2019-02-24T15:32:11.114Z,102271.67
2019-02-24T15:34:39.460Z,102262.78
2019-02-24T15:37:07.454Z,102255.70
2019-02-24T15:39:35.210Z,102258.92
2019-02-24T15:42:03.129Z,102260.12
2019-02-24T15:44:30.914Z,102263.13
2019-02-24T15:46:58.807Z,102272.30
2019-02-24T15:49:26.653Z,102273.13
2019-02-24T15:51:54.866Z,102272.48
2019-02-24T15:54:22.602Z,102260.27
2019-02-24T15:56:50.471Z,102262.36
2019-02-24T15:59:18.315Z,102257.81
2019-02-24T16:01:46.235Z,102251.69
2019-02-24T16:04:14.363Z,102252.99
2019-02-24T16:06:42.197Z,102249.10
2019-02-24T16:09:11.150Z,102255.70
2019-02-24T16:11:39.033Z,102251.36
2019-02-24T16:14:07.187Z,102248.52
2019-02-24T16:16:35.007Z,102254.63
2019-02-24T16:19:02.861Z,102244.98
2019-02-24T16:21:30.636Z,102242.72
2019-02-24T16:23:58.888Z,102234.34
2019-02-24T16:26:26.789Z,102234.88
2019-02-24T16:28:54.546Z,102236.56
2019-02-24T16:31:22.359Z,102243.17
2019-02-24T16:33:50.114Z,102246.82
2019-02-24T16:36:17.943Z,102244.73
2019-02-24T16:38:45.917Z,102241.81
2019-02-24T16:41:13.851Z,102250.68
2019-02-24T16:43:41.723Z,102246.03
2019-02-24T16:46:09.570Z,102253.02
2019-02-24T16:48:37.405Z,102253.02
2019-02-24T16:51:05.434Z,102256.22
2019-02-24T16:53:33.294Z,102259.03
2019-02-24T16:56:01.999Z,102256.50
2019-02-24T16:58:29.863Z,102259.31
2019-02-24T17:00:57.675Z,102258.75
2019-02-24T17:03:25.687Z,102258.38
2019-02-24T17:05:53.649Z,102263.27
2019-02-24T17:08:21.513Z,102272.97
2019-02-24T17:10:49.346Z,102271.58
2019-02-24T17:13:17.255Z,102273.84
2019-02-24T17:15:44.994Z,102272.59
2019-02-24T17:18:12.906Z,102273.08
2019-02-24T17:20:40.670Z,102270.44
2019-02-24T17:23:08.467Z,102280.62
2019-02-24T17:25:36.343Z,102276.27
2019-02-24T17:28:04.337Z,102284.58
2019-02-24T17:30:32.066Z,102283.26
2019-02-24T17:32:59.890Z,102276.45
2019-02-24T17:35:27.761Z,102275.13
2019-02-24T17:37:55.564Z,102276.45
2019-02-24T17:40:24.099Z,102273.25
2019-02-24T17:42:52.026Z,102269.63
2019-02-24T17:45:20.011Z,102271.02
2019-02-24T17:47:48.024Z,102270.36
2019-02-24T17:50:16.915Z,102276.58
2019-02-24T17:52:44.883Z,102277.90
2019-02-24T17:55:12.828Z,102270.60
2019-02-24T17:57:40.840Z,102266.81
2019-02-24T18:00:15.666Z,102269.07
2019-02-24T18:02:43.555Z,102260.86
2019-02-24T18:05:11.507Z,102265.66
2019-02-24T18:07:39.536Z,102262.25
2019-02-24T18:10:07.318Z,102256.69
2019-02-24T18:12:35.222Z,102259.23
2019-02-24T18:15:03.296Z,102266.48
2019-02-24T18:17:31.982Z,102266.17
2019-02-24T18:19:59.943Z,102263.84
2019-02-24T18:22:27.747Z,102264.95
2019-02-24T18:25:02.871Z,102269.47
2019-02-24T18:27:25.391Z,102274.75
2019-02-24T18:29:54.018Z,102278.39
2019-02-24T18:32:21.809Z,102278.88
2019-02-24T18:34:49.565Z,102264.36
2019-02-24T18:37:17.388Z,102264.52
2019-02-24T18:39:45.130Z,102260.08
2019-02-24T18:42:13.071Z,102262.89
2019-02-24T18:44:40.825Z,102256.45
2019-02-24T18:47:08.700Z,102267.85
2019-02-24T18:49:36.440Z,102264.93
2019-02-24T18:52:04.779Z,102269.89
2019-02-24T18:54:34.963Z,102279.12
2019-02-24T18:57:02.378Z,102277.59
2019-02-24T18:59:30.128Z,102273.25
2019-02-24T19:01:57.872Z,102265.49
2019-02-24T19:04:25.668Z,102263.80
2019-02-24T19:06:53.483Z,102260.00
2019-02-24T19:09:21.407Z,102256.69
2019-02-24T19:11:49.760Z,102259.02
2019-02-24T19:14:18.170Z,102258.17
2019-02-24T19:16:46.058Z,102247.85
2019-02-24T19:19:13.874Z,102259.34
2019-02-24T19:21:41.620Z,102257.73
2019-02-24T19:24:10.410Z,102264.72
2019-02-24T19:26:38.258Z,102259.09
2019-02-24T19:29:06.319Z,102263.75
2019-02-24T19:31:34.077Z,102261.22
2019-02-24T19:34:06.596Z,102260.52
2019-02-24T19:36:31.667Z,102263.86
2019-02-24T19:38:59.503Z,102260.55
2019-02-24T19:41:27.346Z,102259.00
2019-02-24T19:43:55.141Z,102262.41
2019-02-24T19:46:22.892Z,102257.45
2019-02-24T19:48:50.693Z,102257.07
2019-02-24T19:51:18.560Z,102260.09
2019-02-24T19:53:46.425Z,102260.64
2019-02-24T19:56:14.180Z,102267.77
2019-02-24T19:58:42.096Z,102268.70
2019-02-24T20:01:09.976Z,102276.94
2019-02-24T20:03:37.916Z,102279.34
2019-02-24T20:06:05.934Z,102280.81
2019-02-24T20:08:33.736Z,102281.26
2019-02-24T20:11:01.597Z,102283.84
2019-02-24T20:13:29.422Z,102277.79
2019-02-24T20:15:57.280Z,102278.10
2019-02-24T20:18:25.202Z,102267.02
2019-02-24T20:20:52.956Z,102266.47
2019-02-24T20:23:20.749Z,102272.83
2019-02-24T20:25:48.492Z,102268.26
2019-02-24T20:28:16.422Z,102262.45
2019-02-24T20:30:44.210Z,102262.59
2019-02-24T20:33:12.318Z,102283.36
2019-02-24T20:35:40.139Z,102282.28
2019-02-24T20:38:08.059Z,102275.22
2019-02-24T20:40:35.915Z,102273.99
2019-02-24T20:43:03.905Z,102271.80
2019-02-24T20:45:31.833Z,102263.76
2019-02-24T20:47:59.846Z,102273.73
2019-02-24T20:50:27.760Z,102281.41
2019-02-24T20:52:55.740Z,102279.48
2019-02-24T20:55:23.690Z,102277.55
2019-02-24T20:57:51.590Z,102273.83
2019-02-24T21:00:22.365Z,102270.42
2019-02-24T21:02:50.145Z,102273.66
2019-02-24T21:05:18.163Z,102278.63
2019-02-24T21:07:46.201Z,102286.67
2019-02-24T21:10:14.146Z,102288.83
2019-02-24T21:12:41.989Z,102289.61
2019-02-24T21:15:10.704Z,102285.90
2019-02-24T21:17:38.494Z,102282.78
2019-02-24T21:20:09.358Z,102282.48
2019-02-24T21:22:37.184Z,102277.28
2019-02-24T21:25:05.318Z,102280.84
2019-02-24T21:27:33.276Z,102288.73
2019-02-24T21:30:01.294Z,102289.09
2019-02-24T21:32:29.794Z,102291.97
2019-02-24T21:34:57.592Z,102279.13
2019-02-24T21:37:25.959Z,102279.73
2019-02-24T21:39:54.181Z,102277.81
2019-02-24T21:42:21.946Z,102275.19
2019-02-24T21:44:49.845Z,102281.58
2019-02-24T21:47:17.716Z,102275.88
2019-02-24T21:49:45.538Z,102278.89
2019-02-24T21:52:13.392Z,102269.97
2019-02-24T21:54:41.307Z,102269.59
2019-02-24T21:57:09.172Z,102270.36
2019-02-24T21:59:37.349Z,102262.91
2019-02-24T22:02:05.332Z,102269.40
2019-02-24T22:04:33.233Z,102270.02
2019-02-24T22:07:01.527Z,102272.67
2019-02-24T22:09:29.331Z,102281.05
2019-02-24T22:11:57.102Z,102284.22
2019-02-24T22:14:24.922Z,102286.12
2019-02-24T22:16:52.698Z,102290.84
2019-02-24T22:19:20.604Z,102295.19
2019-02-24T22:21:48.357Z,102306.34
2019-02-24T22:24:19.092Z,102308.91
2019-02-24T22:26:46.875Z,102308.91
2019-02-24T22:29:14.651Z,102300.63
2019-02-24T22:31:42.593Z,102309.05
2019-02-24T22:34:10.445Z,102296.97
2019-02-24T22:36:38.347Z,102291.40
2019-02-24T22:39:06.622Z,102293.89
2019-02-24T22:41:34.534Z,102289.07
2019-02-24T22:44:02.481Z,102290.92
2019-02-24T22:46:30.404Z,102297.64
2019-02-24T22:48:58.154Z,102292.38
2019-02-24T22:51:26.052Z,102292.13
2019-02-24T22:53:54.521Z,102291.20
2019-02-24T22:56:22.432Z,102295.91
2019-02-24T22:58:50.201Z,102289.38
2019-02-24T23:01:25.930Z,102294.20
2019-02-24T23:04:04.778Z,102293.08
2019-02-24T23:06:32.730Z,102283.48
2019-02-24T23:09:00.547Z,102296.38
2019-02-24T23:11:29.168Z,102291.59
2019-02-24T23:13:56.923Z,102286.34
2019-02-24T23:16:25.366Z,102284.82
2019-02-24T23:18:53.118Z,102281.48
2019-02-24T23:21:21.013Z,102280.31
2019-02-24T23:23:52.133Z,102280.89
2019-02-24T23:26:20.664Z,102276.95
2019-02-24T23:28:48.408Z,102273.76
2019-02-24T23:31:16.307Z,102273.02
2019-02-24T23:33:44.049Z,102275.27
2019-02-24T23:36:11.975Z,102271.06
2019-02-24T23:38:39.745Z,102271.89
2019-02-24T23:41:07.743Z,102272.91
2019-02-24T23:43:35.642Z,102267.25
2019-02-24T23:46:03.709Z,102261.99
2019-02-24T23:48:31.565Z,102271.64
2019-02-24T23:50:59.382Z,102274.61
2019-02-24T23:53:27.128Z,102258.45
2019-02-24T23:55:55.157Z,102246.38
2019-02-24T23:58:22.934Z,102251.20
